sensor_id;sensor_type;location;lat;lon;timestamp;pressure;altitude;pressure_sealevel;temperature
68745;BMP180;66104;45.456;11.064;2022-12-29T00:00:18;101407.60;;;9.20
68745;BMP180;66104;45.456;11.064;2022-12-29T00:02:56;101408.80;;;9.22
68745;BMP180;66104;45.456;11.064;2022-12-29T00:05:33;101407.80;;;9.30
68745;BMP180;66104;45.456;11.064;2022-12-29T00:08:11;101405.60;;;9.30
68745;BMP180;66104;45.456;11.064;2022-12-29T00:10:47;101403.00;;;9.30
68745;BMP180;66104;45.456;11.064;2022-12-29T00:13:25;101400.00;;;9.30
68745;BMP180;66104;45.456;11.064;2022-12-29T00:16:15;101395.80;;;9.30
68745;BMP180;66104;45.456;11.064;2022-12-29T00:18:51;101388.40;;;9.30
68745;BMP180;66104;45.456;11.064;2022-12-29T00:21:29;101375.80;;;9.20
68745;BMP180;66104;45.456;11.064;2022-12-29T00:24:22;101364.20;;;9.20
68745;BMP180;66104;45.456;11.064;2022-12-29T00:27:17;101360.40;;;9.20
68745;BMP180;66104;45.456;11.064;2022-12-29T00:30:15;101369.20;;;9.20
68745;BMP180;66104;45.456;11.064;2022-12-29T00:33:15;101367.80;;;9.20
68745;BMP180;66104;45.456;11.064;2022-12-29T00:36:15;101369.80;;;9.20
68745;BMP180;66104;45.456;11.064;2022-12-29T00:38:58;101372.00;;;9.16
68745;BMP180;66104;45.456;11.064;2022-12-29T00:41:54;101370.60;;;9.16
68745;BMP180;66104;45.456;11.064;2022-12-29T00:44:48;101371.80;;;9.10
68745;BMP180;66104;45.456;11.064;2022-12-29T00:47:24;101370.60;;;9.10
68745;BMP180;66104;45.456;11.064;2022-12-29T00:50:00;101364.20;;;9.10
68745;BMP180;66104;45.456;11.064;2022-12-29T00:52:37;101363.40;;;9.10
68745;BMP180;66104;45.456;11.064;2022-12-29T00:55:14;101375.60;;;9.00
68745;BMP180;66104;45.456;11.064;2022-12-29T00:57:51;101373.60;;;8.90
68745;BMP180;66104;45.456;11.064;2022-12-29T01:00:28;101372.20;;;8.88
68745;BMP180;66104;45.456;11.064;2022-12-29T01:03:05;101377.60;;;8.80
68745;BMP180;66104;45.456;11.064;2022-12-29T01:05:41;101377.40;;;8.70
68745;BMP180;66104;45.456;11.064;2022-12-29T01:08:18;101383.40;;;8.70
68745;BMP180;66104;45.456;11.064;2022-12-29T01:11:05;101386.80;;;8.70
68745;BMP180;66104;45.456;11.064;2022-12-29T01:13:42;101390.00;;;8.70
68745;BMP180;66104;45.456;11.064;2022-12-29T01:16:19;101390.60;;;8.70
68745;BMP180;66104;45.456;11.064;2022-12-29T01:18:55;101389.40;;;8.70
68745;BMP180;66104;45.456;11.064;2022-12-29T01:21:32;101396.80;;;8.80
68745;BMP180;66104;45.456;11.064;2022-12-29T01:24:10;101394.20;;;8.80
68745;BMP180;66104;45.456;11.064;2022-12-29T01:26:47;101390.00;;;8.80
68745;BMP180;66104;45.456;11.064;2022-12-29T01:29:24;101389.00;;;8.90
68745;BMP180;66104;45.456;11.064;2022-12-29T01:32:01;101388.20;;;8.94
68745;BMP180;66104;45.456;11.064;2022-12-29T01:34:38;101381.80;;;9.00
68745;BMP180;66104;45.456;11.064;2022-12-29T01:37:15;101382.00;;;9.00
68745;BMP180;66104;45.456;11.064;2022-12-29T01:39:51;101388.20;;;9.00
68745;BMP180;66104;45.456;11.064;2022-12-29T01:42:30;101385.40;;;9.00
68745;BMP180;66104;45.456;11.064;2022-12-29T01:45:11;101382.00;;;9.00
68745;BMP180;66104;45.456;11.064;2022-12-29T01:47:54;101393.00;;;9.00
68745;BMP180;66104;45.456;11.064;2022-12-29T01:50:35;101393.40;;;9.00
68745;BMP180;66104;45.456;11.064;2022-12-29T01:53:19;101387.60;;;9.00
68745;BMP180;66104;45.456;11.064;2022-12-29T01:56:04;101395.80;;;9.10
68745;BMP180;66104;45.456;11.064;2022-12-29T01:58:47;101395.80;;;9.12
68745;BMP180;66104;45.456;11.064;2022-12-29T02:01:25;101393.20;;;9.12
68745;BMP180;66104;45.456;11.064;2022-12-29T02:04:03;101392.80;;;9.10
68745;BMP180;66104;45.456;11.064;2022-12-29T02:06:46;101399.80;;;9.10
68745;BMP180;66104;45.456;11.064;2022-12-29T02:09:25;101399.80;;;9.06
68745;BMP180;66104;45.456;11.064;2022-12-29T02:12:03;101386.00;;;9.00
68745;BMP180;66104;45.456;11.064;2022-12-29T02:14:40;101375.80;;;8.94
68745;BMP180;66104;45.456;11.064;2022-12-29T02:17:28;101370.20;;;8.90
68745;BMP180;66104;45.456;11.064;2022-12-29T02:24:05;101363.80;;;9.00
68745;BMP180;66104;45.456;11.064;2022-12-29T02:27:03;101360.40;;;9.00
68745;BMP180;66104;45.456;11.064;2022-12-29T02:30:06;101362.40;;;9.00
68745;BMP180;66104;45.456;11.064;2022-12-29T02:32:55;101362.20;;;9.00
68745;BMP180;66104;45.456;11.064;2022-12-29T02:35:47;101361.60;;;9.00
68745;BMP180;66104;45.456;11.064;2022-12-29T02:38:45;101355.20;;;9.00
68745;BMP180;66104;45.456;11.064;2022-12-29T02:41:32;101347.60;;;9.00
68745;BMP180;66104;45.456;11.064;2022-12-29T02:44:21;101342.40;;;9.00
68745;BMP180;66104;45.456;11.064;2022-12-29T02:47:08;101333.00;;;9.10
68745;BMP180;66104;45.456;11.064;2022-12-29T02:49:57;101332.80;;;9.10
68745;BMP180;66104;45.456;11.064;2022-12-29T02:52:39;101341.20;;;9.20
68745;BMP180;66104;45.456;11.064;2022-12-29T02:55:16;101345.40;;;9.18
68745;BMP180;66104;45.456;11.064;2022-12-29T02:58:17;101348.80;;;9.10
68745;BMP180;66104;45.456;11.064;2022-12-29T03:01:11;101340.00;;;9.10
68745;BMP180;66104;45.456;11.064;2022-12-29T03:04:16;101337.20;;;9.04
68745;BMP180;66104;45.456;11.064;2022-12-29T03:07:03;101333.00;;;9.10
68745;BMP180;66104;45.456;11.064;2022-12-29T03:09:52;101334.40;;;9.10
68745;BMP180;66104;45.456;11.064;2022-12-29T03:12:40;101338.80;;;9.00
68745;BMP180;66104;45.456;11.064;2022-12-29T03:15:43;101337.40;;;8.90
68745;BMP180;66104;45.456;11.064;2022-12-29T03:18:49;101329.00;;;8.80
68745;BMP180;66104;45.456;11.064;2022-12-29T03:21:35;101328.80;;;8.80
68745;BMP180;66104;45.456;11.064;2022-12-29T03:24:34;101326.80;;;8.70
68745;BMP180;66104;45.456;11.064;2022-12-29T03:27:17;101322.60;;;8.60
68745;BMP180;66104;45.456;11.064;2022-12-29T03:29:59;101330.40;;;8.60
68745;BMP180;66104;45.456;11.064;2022-12-29T03:32:42;101341.00;;;8.60
68745;BMP180;66104;45.456;11.064;2022-12-29T03:35:23;101350.80;;;8.60
68745;BMP180;66104;45.456;11.064;2022-12-29T03:38:09;101342.60;;;8.64
68745;BMP180;66104;45.456;11.064;2022-12-29T03:40:52;101329.80;;;8.70
68745;BMP180;66104;45.456;11.064;2022-12-29T03:43:34;101321.40;;;8.80
68745;BMP180;66104;45.456;11.064;2022-12-29T03:46:10;101314.80;;;8.80
68745;BMP180;66104;45.456;11.064;2022-12-29T03:48:47;101309.40;;;8.80
68745;BMP180;66104;45.456;11.064;2022-12-29T03:51:24;101313.00;;;8.80
68745;BMP180;66104;45.456;11.064;2022-12-29T03:54:02;101309.80;;;8.80
68745;BMP180;66104;45.456;11.064;2022-12-29T03:56:40;101304.80;;;8.84
68745;BMP180;66104;45.456;11.064;2022-12-29T03:59:17;101307.80;;;8.90
68745;BMP180;66104;45.456;11.064;2022-12-29T04:01:55;101308.00;;;8.90
68745;BMP180;66104;45.456;11.064;2022-12-29T04:04:33;101304.40;;;8.90
68745;BMP180;66104;45.456;11.064;2022-12-29T04:07:09;101308.00;;;9.00
68745;BMP180;66104;45.456;11.064;2022-12-29T04:09:47;101304.40;;;9.00
68745;BMP180;66104;45.456;11.064;2022-12-29T04:12:27;101314.00;;;9.00
68745;BMP180;66104;45.456;11.064;2022-12-29T04:15:05;101318.00;;;9.00
68745;BMP180;66104;45.456;11.064;2022-12-29T04:17:42;101319.80;;;8.90
68745;BMP180;66104;45.456;11.064;2022-12-29T04:20:20;101323.60;;;8.90
68745;BMP180;66104;45.456;11.064;2022-12-29T04:23:13;101322.80;;;8.90
68745;BMP180;66104;45.456;11.064;2022-12-29T04:25:52;101318.40;;;8.90
68745;BMP180;66104;45.456;11.064;2022-12-29T04:28:29;101317.40;;;8.90
68745;BMP180;66104;45.456;11.064;2022-12-29T04:31:24;101322.80;;;8.90
68745;BMP180;66104;45.456;11.064;2022-12-29T04:34:01;101325.60;;;8.90
68745;BMP180;66104;45.456;11.064;2022-12-29T04:36:40;101321.60;;;8.90
68745;BMP180;66104;45.456;11.064;2022-12-29T04:39:18;101319.80;;;8.90
68745;BMP180;66104;45.456;11.064;2022-12-29T04:41:57;101326.20;;;9.00
68745;BMP180;66104;45.456;11.064;2022-12-29T04:44:33;101331.60;;;9.00
68745;BMP180;66104;45.456;11.064;2022-12-29T04:47:21;101318.20;;;9.00
68745;BMP180;66104;45.456;11.064;2022-12-29T04:50:13;101302.40;;;9.00
68745;BMP180;66104;45.456;11.064;2022-12-29T04:52:58;101306.20;;;9.00
68745;BMP180;66104;45.456;11.064;2022-12-29T04:55:35;101310.60;;;9.00
68745;BMP180;66104;45.456;11.064;2022-12-29T04:58:11;101309.60;;;8.90
68745;BMP180;66104;45.456;11.064;2022-12-29T05:00:55;101317.40;;;8.90
68745;BMP180;66104;45.456;11.064;2022-12-29T05:03:35;101320.60;;;8.92
68745;BMP180;66104;45.456;11.064;2022-12-29T05:06:13;101318.20;;;9.00
68745;BMP180;66104;45.456;11.064;2022-12-29T05:08:52;101314.60;;;9.00
68745;BMP180;66104;45.456;11.064;2022-12-29T05:11:28;101325.80;;;9.06
68745;BMP180;66104;45.456;11.064;2022-12-29T05:14:05;101335.20;;;9.10
68745;BMP180;66104;45.456;11.064;2022-12-29T05:16:42;101336.00;;;9.04
68745;BMP180;66104;45.456;11.064;2022-12-29T05:19:19;101319.80;;;9.00
68745;BMP180;66104;45.456;11.064;2022-12-29T05:21:56;101308.40;;;8.98
68745;BMP180;66104;45.456;11.064;2022-12-29T05:24:33;101309.40;;;8.90
68745;BMP180;66104;45.456;11.064;2022-12-29T05:27:10;101315.00;;;8.90
68745;BMP180;66104;45.456;11.064;2022-12-29T05:30:19;101314.60;;;8.90
68745;BMP180;66104;45.456;11.064;2022-12-29T05:32:55;101328.40;;;8.90
68745;BMP180;66104;45.456;11.064;2022-12-29T05:35:31;101335.80;;;8.90
68745;BMP180;66104;45.456;11.064;2022-12-29T05:38:09;101331.20;;;8.90
68745;BMP180;66104;45.456;11.064;2022-12-29T05:40:46;101326.40;;;8.90
68745;BMP180;66104;45.456;11.064;2022-12-29T05:43:43;101334.40;;;8.94
68745;BMP180;66104;45.456;11.064;2022-12-29T05:46:32;101337.00;;;9.00
68745;BMP180;66104;45.456;11.064;2022-12-29T05:49:17;101335.80;;;9.00
68745;BMP180;66104;45.456;11.064;2022-12-29T05:52:13;101333.60;;;9.04
68745;BMP180;66104;45.456;11.064;2022-12-29T05:54:50;101325.00;;;9.04
68745;BMP180;66104;45.456;11.064;2022-12-29T05:57:29;101323.20;;;9.10
68745;BMP180;66104;45.456;11.064;2022-12-29T06:00:20;101324.00;;;9.00
68745;BMP180;66104;45.456;11.064;2022-12-29T06:02:57;101330.60;;;9.00
68745;BMP180;66104;45.456;11.064;2022-12-29T06:05:33;101328.40;;;9.00
68745;BMP180;66104;45.456;11.064;2022-12-29T06:08:10;101319.40;;;9.00
68745;BMP180;66104;45.456;11.064;2022-12-29T06:10:47;101324.40;;;9.00
68745;BMP180;66104;45.456;11.064;2022-12-29T06:13:23;101322.20;;;9.00
68745;BMP180;66104;45.456;11.064;2022-12-29T06:16:00;101317.20;;;9.10
68745;BMP180;66104;45.456;11.064;2022-12-29T06:18:37;101320.80;;;9.10
68745;BMP180;66104;45.456;11.064;2022-12-29T06:21:14;101321.60;;;9.10
68745;BMP180;66104;45.456;11.064;2022-12-29T06:23:52;101320.20;;;9.00
68745;BMP180;66104;45.456;11.064;2022-12-29T06:26:29;101317.60;;;9.00
68745;BMP180;66104;45.456;11.064;2022-12-29T06:29:07;101321.40;;;9.04
68745;BMP180;66104;45.456;11.064;2022-12-29T06:31:44;101321.20;;;9.10
68745;BMP180;66104;45.456;11.064;2022-12-29T06:34:21;101322.80;;;9.08
68745;BMP180;66104;45.456;11.064;2022-12-29T06:36:58;101316.20;;;9.06
68745;BMP180;66104;45.456;11.064;2022-12-29T06:39:34;101308.20;;;9.00
68745;BMP180;66104;45.456;11.064;2022-12-29T06:42:16;101303.60;;;9.00
68745;BMP180;66104;45.456;11.064;2022-12-29T06:45:22;101307.20;;;9.00
68745;BMP180;66104;45.456;11.064;2022-12-29T06:47:58;101312.60;;;9.00
68745;BMP180;66104;45.456;11.064;2022-12-29T06:50:36;101316.00;;;8.90
68745;BMP180;66104;45.456;11.064;2022-12-29T06:53:13;101310.40;;;8.90
68745;BMP180;66104;45.456;11.064;2022-12-29T06:55:51;101321.40;;;8.88
68745;BMP180;66104;45.456;11.064;2022-12-29T06:58:28;101322.80;;;8.80
68745;BMP180;66104;45.456;11.064;2022-12-29T07:01:05;101316.60;;;8.88
68745;BMP180;66104;45.456;11.064;2022-12-29T07:03:43;101318.60;;;8.90
68745;BMP180;66104;45.456;11.064;2022-12-29T07:06:19;101330.20;;;8.90
68745;BMP180;66104;45.456;11.064;2022-12-29T07:08:56;101330.40;;;8.90
68745;BMP180;66104;45.456;11.064;2022-12-29T07:11:31;101332.40;;;8.92
68745;BMP180;66104;45.456;11.064;2022-12-29T07:14:09;101331.80;;;8.92
68745;BMP180;66104;45.456;11.064;2022-12-29T07:16:47;101335.40;;;8.90
68745;BMP180;66104;45.456;11.064;2022-12-29T07:19:23;101337.80;;;8.90
68745;BMP180;66104;45.456;11.064;2022-12-29T07:22:00;101336.60;;;8.94
68745;BMP180;66104;45.456;11.064;2022-12-29T07:24:37;101335.40;;;9.00
68745;BMP180;66104;45.456;11.064;2022-12-29T07:27:14;101341.20;;;9.00
68745;BMP180;66104;45.456;11.064;2022-12-29T07:29:51;101345.40;;;9.00
68745;BMP180;66104;45.456;11.064;2022-12-29T07:32:28;101349.80;;;9.00
68745;BMP180;66104;45.456;11.064;2022-12-29T07:35:11;101340.40;;;9.00
68745;BMP180;66104;45.456;11.064;2022-12-29T07:37:50;101342.60;;;9.00
68745;BMP180;66104;45.456;11.064;2022-12-29T07:40:27;101341.40;;;9.00
68745;BMP180;66104;45.456;11.064;2022-12-29T07:43:03;101345.60;;;9.10
68745;BMP180;66104;45.456;11.064;2022-12-29T07:45:46;101349.20;;;9.10
68745;BMP180;66104;45.456;11.064;2022-12-29T07:48:23;101355.80;;;9.20
68745;BMP180;66104;45.456;11.064;2022-12-29T07:51:00;101351.40;;;9.20
68745;BMP180;66104;45.456;11.064;2022-12-29T07:53:36;101346.40;;;9.14
68745;BMP180;66104;45.456;11.064;2022-12-29T07:56:13;101336.00;;;9.10
68745;BMP180;66104;45.456;11.064;2022-12-29T07:58:49;101335.00;;;9.00
68745;BMP180;66104;45.456;11.064;2022-12-29T08:01:27;101332.40;;;9.10
68745;BMP180;66104;45.456;11.064;2022-12-29T08:04:05;101341.60;;;9.10
68745;BMP180;66104;45.456;11.064;2022-12-29T08:06:42;101346.20;;;9.20
68745;BMP180;66104;45.456;11.064;2022-12-29T08:09:18;101355.20;;;9.20
68745;BMP180;66104;45.456;11.064;2022-12-29T08:11:58;101364.20;;;9.20
68745;BMP180;66104;45.456;11.064;2022-12-29T08:14:35;101379.20;;;9.20
68745;BMP180;66104;45.456;11.064;2022-12-29T08:17:11;101384.40;;;9.20
68745;BMP180;66104;45.456;11.064;2022-12-29T08:19:47;101377.60;;;9.28
68745;BMP180;66104;45.456;11.064;2022-12-29T08:22:26;101385.80;;;9.30
68745;BMP180;66104;45.456;11.064;2022-12-29T08:25:03;101378.60;;;9.30
68745;BMP180;66104;45.456;11.064;2022-12-29T08:27:39;101374.00;;;9.36
68745;BMP180;66104;45.456;11.064;2022-12-29T08:30:19;101380.60;;;9.30
68745;BMP180;66104;45.456;11.064;2022-12-29T08:32:54;101386.00;;;9.40
68745;BMP180;66104;45.456;11.064;2022-12-29T08:35:32;101389.20;;;9.38
68745;BMP180;66104;45.456;11.064;2022-12-29T08:38:10;101396.60;;;9.40
68745;BMP180;66104;45.456;11.064;2022-12-29T08:40:46;101397.40;;;9.40
68745;BMP180;66104;45.456;11.064;2022-12-29T08:43:24;101399.80;;;9.48
68745;BMP180;66104;45.456;11.064;2022-12-29T08:46:01;101396.80;;;9.50
68745;BMP180;66104;45.456;11.064;2022-12-29T08:48:38;101402.60;;;9.50
68745;BMP180;66104;45.456;11.064;2022-12-29T08:51:14;101409.40;;;9.46
68745;BMP180;66104;45.456;11.064;2022-12-29T08:53:56;101409.40;;;9.42
68745;BMP180;66104;45.456;11.064;2022-12-29T08:56:34;101407.20;;;9.50
68745;BMP180;66104;45.456;11.064;2022-12-29T08:59:11;101412.00;;;9.50
68745;BMP180;66104;45.456;11.064;2022-12-29T09:01:49;101414.60;;;9.50
68745;BMP180;66104;45.456;11.064;2022-12-29T09:04:26;101414.80;;;9.50
68745;BMP180;66104;45.456;11.064;2022-12-29T09:07:03;101415.40;;;9.50
68745;BMP180;66104;45.456;11.064;2022-12-29T09:09:41;101411.80;;;9.50
68745;BMP180;66104;45.456;11.064;2022-12-29T09:12:19;101418.80;;;9.50
68745;BMP180;66104;45.456;11.064;2022-12-29T09:14:57;101417.00;;;9.50
68745;BMP180;66104;45.456;11.064;2022-12-29T09:17:33;101411.80;;;9.50
68745;BMP180;66104;45.456;11.064;2022-12-29T09:20:21;101403.20;;;9.60
68745;BMP180;66104;45.456;11.064;2022-12-29T09:22:59;101394.40;;;9.60
68745;BMP180;66104;45.456;11.064;2022-12-29T09:25:35;101393.60;;;9.50
68745;BMP180;66104;45.456;11.064;2022-12-29T09:28:14;101393.00;;;9.50
68745;BMP180;66104;45.456;11.064;2022-12-29T09:30:51;101397.40;;;9.50
68745;BMP180;66104;45.456;11.064;2022-12-29T09:33:27;101403.80;;;9.50
68745;BMP180;66104;45.456;11.064;2022-12-29T09:36:04;101398.40;;;9.60
68745;BMP180;66104;45.456;11.064;2022-12-29T09:38:41;101399.80;;;9.60
68745;BMP180;66104;45.456;11.064;2022-12-29T09:41:29;101396.00;;;9.60
68745;BMP180;66104;45.456;11.064;2022-12-29T09:44:17;101392.00;;;9.60
68745;BMP180;66104;45.456;11.064;2022-12-29T09:46:58;101395.60;;;9.70
68745;BMP180;66104;45.456;11.064;2022-12-29T09:49:45;101385.00;;;9.70
68745;BMP180;66104;45.456;11.064;2022-12-29T09:52:28;101378.40;;;9.80
68745;BMP180;66104;45.456;11.064;2022-12-29T09:55:12;101378.60;;;9.80
68745;BMP180;66104;45.456;11.064;2022-12-29T09:57:56;101391.00;;;9.80
68745;BMP180;66104;45.456;11.064;2022-12-29T10:00:50;101394.60;;;9.70
68745;BMP180;66104;45.456;11.064;2022-12-29T10:03:45;101387.80;;;9.60
68745;BMP180;66104;45.456;11.064;2022-12-29T10:06:25;101397.60;;;9.60
68745;BMP180;66104;45.456;11.064;2022-12-29T10:09:13;101388.00;;;9.70
68745;BMP180;66104;45.456;11.064;2022-12-29T10:12:08;101376.40;;;9.70
68745;BMP180;66104;45.456;11.064;2022-12-29T10:15:02;101378.20;;;9.70
68745;BMP180;66104;45.456;11.064;2022-12-29T10:17:52;101370.00;;;9.72
68745;BMP180;66104;45.456;11.064;2022-12-29T10:20:42;101369.60;;;9.80
68745;BMP180;66104;45.456;11.064;2022-12-29T10:23:33;101367.80;;;9.80
68745;BMP180;66104;45.456;11.064;2022-12-29T10:26:17;101365.60;;;9.90
68745;BMP180;66104;45.456;11.064;2022-12-29T10:28:58;101355.80;;;10.10
68745;BMP180;66104;45.456;11.064;2022-12-29T10:31:40;101359.60;;;10.18
68745;BMP180;66104;45.456;11.064;2022-12-29T10:34:27;101356.80;;;10.20
68745;BMP180;66104;45.456;11.064;2022-12-29T10:37:17;101344.60;;;10.30
68745;BMP180;66104;45.456;11.064;2022-12-29T10:40:12;101338.80;;;10.40
68745;BMP180;66104;45.456;11.064;2022-12-29T10:42:55;101345.00;;;10.40
68745;BMP180;66104;45.456;11.064;2022-12-29T10:45:33;101339.40;;;10.40
68745;BMP180;66104;45.456;11.064;2022-12-29T10:48:19;101331.80;;;10.48
68745;BMP180;66104;45.456;11.064;2022-12-29T10:51:06;101319.60;;;10.50
68745;BMP180;66104;45.456;11.064;2022-12-29T10:53:49;101323.60;;;10.56
68745;BMP180;66104;45.456;11.064;2022-12-29T10:56:35;101319.20;;;10.60
68745;BMP180;66104;45.456;11.064;2022-12-29T10:59:20;101310.80;;;10.60
68745;BMP180;66104;45.456;11.064;2022-12-29T11:02:20;101311.60;;;10.64
68745;BMP180;66104;45.456;11.064;2022-12-29T11:05:10;101323.00;;;10.70
68745;BMP180;66104;45.456;11.064;2022-12-29T11:08:01;101318.80;;;10.70
68745;BMP180;66104;45.456;11.064;2022-12-29T11:10:43;101314.40;;;10.80
68745;BMP180;66104;45.456;11.064;2022-12-29T11:13:25;101309.40;;;10.90
68745;BMP180;66104;45.456;11.064;2022-12-29T11:16:13;101316.00;;;10.90
68745;BMP180;66104;45.456;11.064;2022-12-29T11:18:50;101315.60;;;10.90
68745;BMP180;66104;45.456;11.064;2022-12-29T11:21:36;101312.60;;;10.90
68745;BMP180;66104;45.456;11.064;2022-12-29T11:24:26;101300.00;;;10.90
68745;BMP180;66104;45.456;11.064;2022-12-29T11:27:20;101276.80;;;10.90
68745;BMP180;66104;45.456;11.064;2022-12-29T11:29:58;101286.60;;;10.90
68745;BMP180;66104;45.456;11.064;2022-12-29T11:32:34;101296.20;;;11.00
68745;BMP180;66104;45.456;11.064;2022-12-29T11:35:36;101292.80;;;11.00
68745;BMP180;66104;45.456;11.064;2022-12-29T11:38:24;101302.00;;;11.00
68745;BMP180;66104;45.456;11.064;2022-12-29T11:41:03;101306.80;;;10.90
68745;BMP180;66104;45.456;11.064;2022-12-29T11:43:43;101301.60;;;10.82
68745;BMP180;66104;45.456;11.064;2022-12-29T11:46:22;101295.40;;;10.80
68745;BMP180;66104;45.456;11.064;2022-12-29T11:49:00;101298.40;;;10.70
68745;BMP180;66104;45.456;11.064;2022-12-29T11:51:45;101294.40;;;10.70
68745;BMP180;66104;45.456;11.064;2022-12-29T11:54:25;101288.20;;;10.70
68745;BMP180;66104;45.456;11.064;2022-12-29T11:57:11;101284.60;;;10.70
68745;BMP180;66104;45.456;11.064;2022-12-29T11:59:54;101287.80;;;10.70
68745;BMP180;66104;45.456;11.064;2022-12-29T12:02:42;101288.40;;;10.60
68745;BMP180;66104;45.456;11.064;2022-12-29T12:05:37;101298.20;;;10.60
68745;BMP180;66104;45.456;11.064;2022-12-29T12:08:21;101305.60;;;10.62
68745;BMP180;66104;45.456;11.064;2022-12-29T12:11:09;101304.00;;;10.60
68745;BMP180;66104;45.456;11.064;2022-12-29T12:13:57;101294.60;;;10.60
68745;BMP180;66104;45.456;11.064;2022-12-29T12:16:43;101293.60;;;10.56
68745;BMP180;66104;45.456;11.064;2022-12-29T12:19:34;101289.40;;;10.50
68745;BMP180;66104;45.456;11.064;2022-12-29T12:22:21;101283.40;;;10.50
68745;BMP180;66104;45.456;11.064;2022-12-29T12:25:04;101266.20;;;10.50
68745;BMP180;66104;45.456;11.064;2022-12-29T12:27:50;101253.00;;;10.50
68745;BMP180;66104;45.456;11.064;2022-12-29T12:30:33;101244.60;;;10.40
68745;BMP180;66104;45.456;11.064;2022-12-29T12:33:26;101236.60;;;10.40
68745;BMP180;66104;45.456;11.064;2022-12-29T12:36:30;101235.80;;;10.40
68745;BMP180;66104;45.456;11.064;2022-12-29T12:39:22;101246.00;;;10.40
68745;BMP180;66104;45.456;11.064;2022-12-29T12:42:18;101246.60;;;10.40
68745;BMP180;66104;45.456;11.064;2022-12-29T12:48:35;101255.40;;;10.50
68745;BMP180;66104;45.456;11.064;2022-12-29T12:51:33;101271.00;;;10.50
68745;BMP180;66104;45.456;11.064;2022-12-29T12:54:37;101273.40;;;10.50
68745;BMP180;66104;45.456;11.064;2022-12-29T12:57:26;101282.60;;;10.48
68745;BMP180;66104;45.456;11.064;2022-12-29T13:00:11;101281.60;;;10.50
68745;BMP180;66104;45.456;11.064;2022-12-29T13:03:05;101279.80;;;10.50
68745;BMP180;66104;45.456;11.064;2022-12-29T13:06:05;101264.60;;;10.50
68745;BMP180;66104;45.456;11.064;2022-12-29T13:09:08;101247.40;;;10.52
68745;BMP180;66104;45.456;11.064;2022-12-29T13:12:04;101251.60;;;10.50
68745;BMP180;66104;45.456;11.064;2022-12-29T13:15:00;101249.40;;;10.50
68745;BMP180;66104;45.456;11.064;2022-12-29T13:17:50;101252.20;;;10.50
68745;BMP180;66104;45.456;11.064;2022-12-29T13:20:40;101256.80;;;10.50
68745;BMP180;66104;45.456;11.064;2022-12-29T13:23:27;101272.40;;;10.50
68745;BMP180;66104;45.456;11.064;2022-12-29T13:26:14;101281.60;;;10.50
68745;BMP180;66104;45.456;11.064;2022-12-29T13:29:04;101290.00;;;10.50
68745;BMP180;66104;45.456;11.064;2022-12-29T13:31:59;101263.80;;;10.60
68745;BMP180;66104;45.456;11.064;2022-12-29T13:34:45;101251.80;;;10.60
68745;BMP180;66104;45.456;11.064;2022-12-29T13:37:33;101250.60;;;10.50
68745;BMP180;66104;45.456;11.064;2022-12-29T13:40:21;101249.20;;;10.50
68745;BMP180;66104;45.456;11.064;2022-12-29T13:43:00;101245.40;;;10.50
68745;BMP180;66104;45.456;11.064;2022-12-29T13:45:38;101250.20;;;10.56
68745;BMP180;66104;45.456;11.064;2022-12-29T13:48:23;101246.20;;;10.60
68745;BMP180;66104;45.456;11.064;2022-12-29T13:51:03;101244.80;;;10.60
68745;BMP180;66104;45.456;11.064;2022-12-29T13:53:49;101247.00;;;10.60
68745;BMP180;66104;45.456;11.064;2022-12-29T13:56:41;101240.80;;;10.60
68745;BMP180;66104;45.456;11.064;2022-12-29T13:59:31;101236.20;;;10.60
68745;BMP180;66104;45.456;11.064;2022-12-29T14:02:31;101231.00;;;10.60
68745;BMP180;66104;45.456;11.064;2022-12-29T14:05:32;101222.00;;;10.60
68745;BMP180;66104;45.456;11.064;2022-12-29T14:08:17;101222.00;;;10.50
68745;BMP180;66104;45.456;11.064;2022-12-29T14:10:56;101223.20;;;10.40
68745;BMP180;66104;45.456;11.064;2022-12-29T14:13:33;101231.40;;;10.30
68745;BMP180;66104;45.456;11.064;2022-12-29T14:16:28;101234.20;;;10.20
68745;BMP180;66104;45.456;11.064;2022-12-29T14:19:19;101242.20;;;10.20
68745;BMP180;66104;45.456;11.064;2022-12-29T14:22:00;101241.20;;;10.20
68745;BMP180;66104;45.456;11.064;2022-12-29T14:24:47;101230.80;;;10.30
68745;BMP180;66104;45.456;11.064;2022-12-29T14:27:54;101228.60;;;10.30
68745;BMP180;66104;45.456;11.064;2022-12-29T14:31:03;101232.40;;;10.30
68745;BMP180;66104;45.456;11.064;2022-12-29T14:33:40;101228.20;;;10.40
68745;BMP180;66104;45.456;11.064;2022-12-29T14:39:42;101226.00;;;10.40
68745;BMP180;66104;45.456;11.064;2022-12-29T14:42:22;101223.60;;;10.40
68745;BMP180;66104;45.456;11.064;2022-12-29T14:45:05;101224.20;;;10.40
68745;BMP180;66104;45.456;11.064;2022-12-29T14:47:46;101228.80;;;10.40
68745;BMP180;66104;45.456;11.064;2022-12-29T14:50:32;101229.80;;;10.40
68745;BMP180;66104;45.456;11.064;2022-12-29T14:53:43;101224.00;;;10.34
68745;BMP180;66104;45.456;11.064;2022-12-29T14:56:23;101230.20;;;10.30
68745;BMP180;66104;45.456;11.064;2022-12-29T14:59:03;101231.80;;;10.30
68745;BMP180;66104;45.456;11.064;2022-12-29T15:01:47;101234.20;;;10.30
68745;BMP180;66104;45.456;11.064;2022-12-29T15:04:30;101236.20;;;10.30
68745;BMP180;66104;45.456;11.064;2022-12-29T15:07:12;101230.20;;;10.30
68745;BMP180;66104;45.456;11.064;2022-12-29T15:09:56;101227.60;;;10.30
68745;BMP180;66104;45.456;11.064;2022-12-29T15:12:41;101220.20;;;10.30
68745;BMP180;66104;45.456;11.064;2022-12-29T15:15:27;101213.00;;;10.30
68745;BMP180;66104;45.456;11.064;2022-12-29T15:18:26;101211.00;;;10.30
68745;BMP180;66104;45.456;11.064;2022-12-29T15:21:05;101207.40;;;10.22
68745;BMP180;66104;45.456;11.064;2022-12-29T15:23:44;101203.20;;;10.20
68745;BMP180;66104;45.456;11.064;2022-12-29T15:26:21;101208.80;;;10.20
68745;BMP180;66104;45.456;11.064;2022-12-29T15:28:58;101213.00;;;10.22
68745;BMP180;66104;45.456;11.064;2022-12-29T15:31:35;101214.40;;;10.28